CheckWX is a tool to help pilots better visualize weather data.  It is not intended as a substitute for an official pre-flight weather briefing.

19:15:08 UTC

KRIV METAR
March ARB Airport
Riverside, California, USA
Current

21 mins ago

KRIV 261854Z AUTO 28006KT 10SM FEW012 BKN025 OVC036 15/09 A2995 RMK AO2 CIG 023V036 SLP138
Observed
May-26 @ 18:54 UTC
Wind
  • 280° at 6 KTS
Visibility
10 SM
Flight Rules
MVFR
Cloud Levels
  • Few at 1,200' AGL
  • Broken at 2,500' AGL
  • Overcast at 3,600' AGL
Temperature
15°C / 59°F
Dewpoint
C / 48°F
Humidity
68%
Altimeter
29.95" Hg
Pressure
1014.22 hPa
Previous

1 hour ago

KRIV 261758Z AUTO 16011KT 10SM SCT041 BKN049 BKN055 14/11 A2994 RMK AO2 SLP134 T01440110 10153 20125 52015
Observed
May-26 @ 17:58 UTC
Wind
  • 160° at 11 KTS
Visibility
10 SM
Flight Rules
VFR
Cloud Levels
  • Scattered at 4,100' AGL
  • Broken at 4,900' AGL
  • Broken at 5,500' AGL
Temperature
14°C / 57°F
Dewpoint
11°C / 52°F
Humidity
82%
Altimeter
29.94" Hg
Pressure
1013.92 hPa
Previous

2 hours ago

KRIV 261743Z AUTO 17008KT 10SM FEW029 BKN041 OVC049 14/11 A2993 RMK AO2 SLP131
Observed
May-26 @ 17:43 UTC
Wind
  • 170° at 8 KTS
Visibility
10 SM
Flight Rules
VFR
Cloud Levels
  • Few at 2,900' AGL
  • Broken at 4,100' AGL
  • Overcast at 4,900' AGL
Temperature
14°C / 57°F
Dewpoint
11°C / 52°F
Humidity
82%
Altimeter
29.93" Hg
Pressure
1013.52 hPa